Time;durP1;ratioP1;P1;durP2;ratioP2;P2;SDS_P1;SDS_P2;PMS_P1;PMS_P2;Temp;Humidity;BMP_temperature;BMP_pressure;BME280_temperature;BME280_humidity;BME280_pressure;Samples;Min_cycle;Max_cycle;Signal;HPM_P1;HPM_P2
2023/12/13 00:01:47;;;;;;;126.97;50.53;;;;;;;;;;5032175;28;20463;-73
2023/12/13 00:04:12;;;;;;;131.97;52.33;;;;;;;;;;5032512;28;21063;-73
2023/12/13 00:06:38;;;;;;;132.20;53.67;;;;;;;;;;5032730;28;20238;-72
2023/12/13 00:09:03;;;;;;;139.20;55.40;;;;;;;;;;5018221;28;20233;-71
2023/12/13 00:11:29;;;;;;;127.43;52.53;;;;;;;;;;5028022;28;20677;-72
2023/12/13 00:13:54;;;;;;;133.77;54.07;;;;;;;;;;5028128;28;20295;-71
2023/12/13 00:16:21;;;;;;;139.80;55.00;;;;;;;;;;5017650;28;20221;-72
2023/12/13 00:18:49;;;;;;;144.47;55.10;;;;;;;;;;5031142;28;20222;-72
2023/12/13 00:21:17;;;;;;;137.83;53.67;;;;;;;;;;5032892;28;20750;-72
2023/12/13 00:23:43;;;;;;;144.33;53.57;;;;;;;;;;5032344;28;20229;-72
2023/12/13 00:26:18;;;;;;;131.27;53.50;;;;;;;;;;5030880;28;20348;-72
2023/12/13 00:28:43;;;;;;;139.43;53.57;;;;;;;;;;5032041;28;20224;-72
2023/12/13 00:31:09;;;;;;;137.20;53.53;;;;;;;;;;5022903;28;20684;-72
2023/12/13 00:33:35;;;;;;;135.43;53.40;;;;;;;;;;5019223;28;20333;-72
2023/12/13 00:36:00;;;;;;;135.80;52.00;;;;;;;;;;5016157;28;20297;-72
2023/12/13 00:38:26;;;;;;;129.97;50.40;;;;;;;;;;5013393;28;20226;-72
2023/12/13 00:40:51;;;;;;;116.90;47.03;;;;;;;;;;5031430;28;20262;-71
2023/12/13 00:43:19;;;;;;;111.27;44.50;;;;;;;;;;5029421;28;20220;-71
2023/12/13 00:45:44;;;;;;;105.10;44.43;;;;;;;;;;5030201;28;20267;-73
2023/12/13 00:48:10;;;;;;;109.97;43.43;;;;;;;;;;5029848;28;20680;-72
2023/12/13 00:50:35;;;;;;;101.87;42.57;;;;;;;;;;5032494;28;20233;-72
2023/12/13 00:53:00;;;;;;;109.87;42.33;;;;;;;;;;5032274;28;20232;-74
2023/12/13 00:55:26;;;;;;;97.23;39.73;;;;;;;;;;5017300;28;20622;-73
2023/12/13 00:57:51;;;;;;;94.33;39.63;;;;;;;;;;5031601;28;20240;-73
2023/12/13 01:00:17;;;;;;;99.10;40.23;;;;;;;;;;5015097;28;20226;-73
2023/12/13 01:02:42;;;;;;;106.23;41.37;;;;;;;;;;5030452;28;20615;-73
2023/12/13 01:05:08;;;;;;;103.23;42.90;;;;;;;;;;5016027;28;20269;-72
2023/12/13 01:07:33;;;;;;;103.10;43.50;;;;;;;;;;5029806;28;20227;-71
2023/12/13 01:09:58;;;;;;;109.90;44.47;;;;;;;;;;5026268;28;20237;-73
2023/12/13 01:12:23;;;;;;;107.07;43.73;;;;;;;;;;5030057;28;20277;-73
2023/12/13 01:14:49;;;;;;;101.20;43.27;;;;;;;;;;5028113;28;20306;-73
2023/12/13 01:17:14;;;;;;;105.13;43.63;;;;;;;;;;5014065;28;20292;-72
2023/12/13 01:19:39;;;;;;;102.97;43.97;;;;;;;;;;5030647;28;20225;-73
2023/12/13 01:22:05;;;;;;;107.97;44.17;;;;;;;;;;5014763;28;20222;-72
2023/12/13 01:24:30;;;;;;;109.53;42.97;;;;;;;;;;5013478;28;20682;-73
2023/12/13 01:26:57;;;;;;;104.77;44.70;;;;;;;;;;5033693;28;20241;-73
2023/12/13 01:29:22;;;;;;;118.47;47.10;;;;;;;;;;5029328;28;20222;-73
2023/12/13 01:31:47;;;;;;;112.93;46.47;;;;;;;;;;5030803;28;20210;-72
2023/12/13 01:34:14;;;;;;;116.33;45.47;;;;;;;;;;5028793;28;20274;-74
2023/12/13 01:36:41;;;;;;;114.23;45.77;;;;;;;;;;5031163;28;20209;-74
2023/12/13 01:39:07;;;;;;;107.20;44.47;;;;;;;;;;5038472;28;20760;-72
2023/12/13 01:41:32;;;;;;;113.57;46.00;;;;;;;;;;5015105;28;20225;-73
2023/12/13 01:43:58;;;;;;;113.43;44.17;;;;;;;;;;5034830;28;20283;-73
2023/12/13 01:46:23;;;;;;;106.33;44.73;;;;;;;;;;5030480;28;20234;-73
2023/12/13 01:48:48;;;;;;;108.17;44.53;;;;;;;;;;5032299;28;20222;-73
2023/12/13 01:51:14;;;;;;;111.50;46.13;;;;;;;;;;5025342;28;20230;-73
2023/12/13 01:53:40;;;;;;;106.57;44.63;;;;;;;;;;5020362;28;20225;-72
2023/12/13 01:56:05;;;;;;;117.70;46.73;;;;;;;;;;5019283;28;20770;-72
2023/12/13 01:58:31;;;;;;;110.37;45.30;;;;;;;;;;5033985;28;20226;-73
2023/12/13 02:00:56;;;;;;;106.97;45.00;;;;;;;;;;5034236;28;20234;-73
2023/12/13 02:03:22;;;;;;;115.53;46.00;;;;;;;;;;5031272;28;20221;-72
2023/12/13 02:05:48;;;;;;;111.17;45.97;;;;;;;;;;5033582;28;20652;-72
2023/12/13 02:08:13;;;;;;;113.43;47.63;;;;;;;;;;5028645;28;20229;-73
2023/12/13 02:10:38;;;;;;;121.80;47.93;;;;;;;;;;5034019;28;20224;-72
2023/12/13 02:13:04;;;;;;;115.80;46.03;;;;;;;;;;5016821;28;20222;-73
2023/12/13 02:15:34;;;;;;;120.83;48.10;;;;;;;;;;5031706;28;20236;-73
2023/12/13 02:18:00;;;;;;;112.03;46.90;;;;;;;;;;5026484;28;20225;-73
2023/12/13 02:20:26;;;;;;;117.83;47.30;;;;;;;;;;5028742;28;20226;-72
2023/12/13 02:22:51;;;;;;;111.30;45.17;;;;;;;;;;5029087;28;20221;-73
2023/12/13 02:25:19;;;;;;;111.40;46.40;;;;;;;;;;5030874;28;20229;-73
2023/12/13 02:27:44;;;;;;;106.97;44.53;;;;;;;;;;5031987;28;20225;-72
2023/12/13 02:30:10;;;;;;;101.97;42.77;;;;;;;;;;5035331;28;20217;-73
2023/12/13 02:32:36;;;;;;;107.40;44.43;;;;;;;;;;5033944;28;20214;-73
2023/12/13 02:35:02;;;;;;;93.90;42.03;;;;;;;;;;5033081;28;20745;-72
2023/12/13 02:37:28;;;;;;;102.50;43.57;;;;;;;;;;5031638;28;20228;-73
2023/12/13 02:39:53;;;;;;;106.33;44.83;;;;;;;;;;5034294;28;20225;-73
2023/12/13 02:42:19;;;;;;;110.87;44.57;;;;;;;;;;5018895;28;20226;-72
2023/12/13 02:44:44;;;;;;;103.63;40.93;;;;;;;;;;5028728;28;20218;-72
2023/12/13 02:47:10;;;;;;;113.03;44.03;;;;;;;;;;5033717;28;20666;-73
2023/12/13 02:49:35;;;;;;;89.97;37.53;;;;;;;;;;5033412;28;20217;-73
2023/12/13 02:52:01;;;;;;;96.50;40.23;;;;;;;;;;5022134;28;20233;-73
2023/12/13 02:54:26;;;;;;;94.57;37.07;;;;;;;;;;5034530;28;20314;-72
2023/12/13 02:56:51;;;;;;;88.50;35.00;;;;;;;;;;5031987;28;20663;-73
2023/12/13 02:59:16;;;;;;;83.73;33.07;;;;;;;;;;5019250;28;20218;-73
2023/12/13 03:01:42;;;;;;;81.80;33.50;;;;;;;;;;5033751;28;20300;-72
2023/12/13 03:04:07;;;;;;;80.30;32.20;;;;;;;;;;5031274;28;20233;-73
2023/12/13 03:06:32;;;;;;;75.57;31.23;;;;;;;;;;5033286;28;20244;-74
2023/12/13 03:08:58;;;;;;;78.60;31.73;;;;;;;;;;5028930;28;20614;-73
2023/12/13 03:11:23;;;;;;;78.87;31.23;;;;;;;;;;5029755;28;20222;-73
2023/12/13 03:13:48;;;;;;;74.53;30.20;;;;;;;;;;5038694;28;20278;-73
2023/12/13 03:16:14;;;;;;;71.73;30.07;;;;;;;;;;5033132;28;20222;-73
2023/12/13 03:18:39;;;;;;;70.30;29.70;;;;;;;;;;5040634;28;20634;-73
2023/12/13 03:21:05;;;;;;;72.87;29.07;;;;;;;;;;5016088;28;20376;-73
2023/12/13 03:23:30;;;;;;;68.90;29.23;;;;;;;;;;5019727;28;20226;-72
2023/12/13 03:25:55;;;;;;;66.53;28.77;;;;;;;;;;5031245;28;20233;-73
2023/12/13 03:28:21;;;;;;;62.67;25.50;;;;;;;;;;5016816;28;20236;-74
2023/12/13 03:30:46;;;;;;;63.83;25.70;;;;;;;;;;5015590;28;20321;-72
2023/12/13 03:33:11;;;;;;;59.17;25.47;;;;;;;;;;5016171;28;20305;-74
2023/12/13 03:35:37;;;;;;;57.93;24.20;;;;;;;;;;5018870;28;20218;-73
2023/12/13 03:38:02;;;;;;;55.60;24.20;;;;;;;;;;5030553;28;20222;-72
2023/12/13 03:40:28;;;;;;;57.80;25.40;;;;;;;;;;5030196;28;20260;-73
2023/12/13 03:42:53;;;;;;;58.83;24.07;;;;;;;;;;5031460;28;20233;-73
2023/12/13 03:45:19;;;;;;;54.67;24.00;;;;;;;;;;5019933;28;20233;-73
2023/12/13 03:47:44;;;;;;;57.93;24.67;;;;;;;;;;5031045;28;20221;-73
2023/12/13 03:50:10;;;;;;;66.07;28.00;;;;;;;;;;5033157;28;20230;-73
2023/12/13 03:52:35;;;;;;;68.47;30.30;;;;;;;;;;5015303;28;20218;-73
2023/12/13 03:55:00;;;;;;;62.30;26.50;;;;;;;;;;5032494;28;20252;-73
2023/12/13 03:57:27;;;;;;;70.33;30.73;;;;;;;;;;5030929;28;20225;-73
2023/12/13 03:59:52;;;;;;;63.70;26.63;;;;;;;;;;5031470;28;20222;-73
2023/12/13 04:02:17;;;;;;;61.47;24.93;;;;;;;;;;5032952;28;20245;-72
2023/12/13 04:04:43;;;;;;;60.43;26.17;;;;;;;;;;5031598;28;20233;-73
2023/12/13 04:07:09;;;;;;;61.73;26.37;;;;;;;;;;5014140;28;20333;-73
2023/12/13 04:09:34;;;;;;;57.80;26.07;;;;;;;;;;5014673;28;20217;-74
2023/12/13 04:12:02;;;;;;;64.70;27.60;;;;;;;;;;5032767;28;20245;-73
2023/12/13 04:14:27;;;;;;;63.67;26.97;;;;;;;;;;5029007;28;20226;-72
2023/12/13 04:16:52;;;;;;;67.03;27.60;;;;;;;;;;5015709;28;20225;-73
2023/12/13 04:19:18;;;;;;;72.00;29.20;;;;;;;;;;5033804;28;20330;-73
2023/12/13 04:21:43;;;;;;;68.30;28.90;;;;;;;;;;5032971;28;20687;-74
2023/12/13 04:24:08;;;;;;;67.23;29.03;;;;;;;;;;5029502;28;20232;-73
2023/12/13 04:26:34;;;;;;;66.93;28.60;;;;;;;;;;5032129;28;20229;-73
2023/12/13 04:28:59;;;;;;;68.97;28.67;;;;;;;;;;5016976;28;20232;-73
2023/12/13 04:31:24;;;;;;;68.90;28.60;;;;;;;;;;5028280;28;20226;-73
2023/12/13 04:33:50;;;;;;;68.00;28.37;;;;;;;;;;5020125;28;20213;-73
2023/12/13 04:36:15;;;;;;;72.83;29.27;;;;;;;;;;5029506;28;20314;-73
2023/12/13 04:38:43;;;;;;;72.50;29.30;;;;;;;;;;5016332;28;20225;-73
2023/12/13 04:41:08;;;;;;;63.53;27.83;;;;;;;;;;5017695;28;20221;-73
2023/12/13 04:43:33;;;;;;;67.23;28.37;;;;;;;;;;5027185;28;20607;-73
2023/12/13 04:45:59;;;;;;;67.60;28.73;;;;;;;;;;5033194;28;20240;-73
2023/12/13 04:48:24;;;;;;;65.83;28.00;;;;;;;;;;5038661;28;20248;-73
2023/12/13 04:50:49;;;;;;;64.67;28.23;;;;;;;;;;5029616;28;20247;-74
2023/12/13 04:53:15;;;;;;;65.73;28.53;;;;;;;;;;5034730;28;20222;-73
2023/12/13 04:55:40;;;;;;;67.93;28.43;;;;;;;;;;5015337;28;20248;-73
2023/12/13 04:58:05;;;;;;;67.37;28.90;;;;;;;;;;5030498;28;20225;-73
2023/12/13 05:00:31;;;;;;;62.13;27.00;;;;;;;;;;5030164;28;20257;-73
2023/12/13 05:02:56;;;;;;;63.43;28.10;;;;;;;;;;5016303;28;20616;-73
2023/12/13 05:05:22;;;;;;;64.90;26.80;;;;;;;;;;5027579;28;20302;-72
2023/12/13 05:07:47;;;;;;;60.80;26.43;;;;;;;;;;5029183;28;20829;-72
2023/12/13 05:10:12;;;;;;;59.90;26.67;;;;;;;;;;5026949;28;20222;-73
2023/12/13 05:12:38;;;;;;;59.63;24.93;;;;;;;;;;5035112;28;20217;-72
2023/12/13 05:15:04;;;;;;;63.20;25.50;;;;;;;;;;5030710;28;20218;-73
2023/12/13 05:17:29;;;;;;;55.07;24.27;;;;;;;;;;5032410;28;20758;-72
2023/12/13 05:19:54;;;;;;;54.07;23.53;;;;;;;;;;5034107;28;20293;-73
2023/12/13 05:22:20;;;;;;;52.53;23.40;;;;;;;;;;5030752;28;20217;-72
2023/12/13 05:24:45;;;;;;;54.00;23.97;;;;;;;;;;5029359;28;20725;-72
2023/12/13 05:27:10;;;;;;;51.17;23.13;;;;;;;;;;5035542;28;20264;-73
2023/12/13 05:29:36;;;;;;;57.97;24.40;;;;;;;;;;5015451;28;20306;-73
2023/12/13 05:32:01;;;;;;;55.83;23.90;;;;;;;;;;5014047;28;20321;-72
2023/12/13 05:34:27;;;;;;;55.83;23.53;;;;;;;;;;5032803;28;20231;-71
2023/12/13 05:36:53;;;;;;;55.63;24.23;;;;;;;;;;5027002;28;20292;-70
2023/12/13 05:39:18;;;;;;;49.50;21.43;;;;;;;;;;5026067;28;20222;-71
2023/12/13 05:41:43;;;;;;;47.77;21.30;;;;;;;;;;5024727;28;20222;-72
2023/12/13 05:44:08;;;;;;;46.67;18.97;;;;;;;;;;5043436;28;20221;-72
2023/12/13 05:46:34;;;;;;;37.23;16.93;;;;;;;;;;5034888;28;20618;-72
2023/12/13 05:49:03;;;;;;;40.37;18.43;;;;;;;;;;5035112;28;20214;-72
2023/12/13 05:51:29;;;;;;;37.67;18.23;;;;;;;;;;5028538;28;20677;-72
2023/12/13 05:53:54;;;;;;;38.27;17.07;;;;;;;;;;5038198;28;20232;-71
2023/12/13 05:56:19;;;;;;;39.40;17.83;;;;;;;;;;5033243;28;20295;-71
2023/12/13 05:58:45;;;;;;;41.87;19.17;;;;;;;;;;5031348;28;20960;-71
2023/12/13 06:01:10;;;;;;;40.03;18.80;;;;;;;;;;5030205;28;20221;-71
2023/12/13 06:03:35;;;;;;;44.47;18.67;;;;;;;;;;5034247;28;20218;-71
2023/12/13 06:06:01;;;;;;;41.40;19.40;;;;;;;;;;5018894;28;20234;-72
2023/12/13 06:08:27;;;;;;;43.13;19.47;;;;;;;;;;5025413;28;20400;-73
2023/12/13 06:10:52;;;;;;;42.93;18.90;;;;;;;;;;5027307;28;20249;-73
2023/12/13 06:13:17;;;;;;;45.17;20.70;;;;;;;;;;5026064;28;20225;-75
2023/12/13 06:15:43;;;;;;;46.17;19.03;;;;;;;;;;5028958;28;20221;-73
2023/12/13 06:18:09;;;;;;;43.03;19.23;;;;;;;;;;5029714;28;20222;-72
2023/12/13 06:20:34;;;;;;;48.07;20.17;;;;;;;;;;5028350;28;20222;-74
2023/12/13 06:22:59;;;;;;;48.27;21.23;;;;;;;;;;5028404;28;20229;-73
2023/12/13 06:25:24;;;;;;;45.03;21.03;;;;;;;;;;5032137;28;20794;-73
2023/12/13 06:27:50;;;;;;;50.73;22.43;;;;;;;;;;5016271;28;20306;-73
2023/12/13 06:30:15;;;;;;;66.07;27.10;;;;;;;;;;5029847;28;20222;-73
2023/12/13 06:32:41;;;;;;;52.13;23.07;;;;;;;;;;5020152;28;20222;-73
2023/12/13 06:35:06;;;;;;;50.10;21.53;;;;;;;;;;5033063;28;20233;-72
2023/12/13 06:37:32;;;;;;;49.63;21.87;;;;;;;;;;5018157;28;20226;-72
2023/12/13 06:39:57;;;;;;;46.50;22.10;;;;;;;;;;5031712;28;20309;-72
2023/12/13 06:42:22;;;;;;;57.43;26.73;;;;;;;;;;5033648;28;20305;-71
2023/12/13 06:44:48;;;;;;;55.73;24.10;;;;;;;;;;5017746;28;20222;-72
2023/12/13 06:47:13;;;;;;;53.07;23.57;;;;;;;;;;5029901;28;20237;-71
2023/12/13 06:49:38;;;;;;;59.10;27.60;;;;;;;;;;5033747;28;20610;-72
2023/12/13 06:52:04;;;;;;;63.53;28.27;;;;;;;;;;5035630;28;20218;-72
2023/12/13 06:54:29;;;;;;;71.67;30.67;;;;;;;;;;5032444;28;20222;-71
2023/12/13 06:56:56;;;;;;;65.33;28.87;;;;;;;;;;5032212;28;20226;-72
2023/12/13 06:59:21;;;;;;;62.50;27.97;;;;;;;;;;5035565;28;20226;-71
2023/12/13 07:01:46;;;;;;;113.70;47.33;;;;;;;;;;5020083;28;20224;-71
2023/12/13 07:04:12;;;;;;;96.23;42.17;;;;;;;;;;5034857;28;20322;-71
2023/12/13 07:06:37;;;;;;;77.63;33.87;;;;;;;;;;5034477;28;20463;-71
2023/12/13 07:09:02;;;;;;;77.70;33.20;;;;;;;;;;5033465;28;20304;-72
2023/12/13 07:11:28;;;;;;;76.17;34.13;;;;;;;;;;5039390;28;20386;-73
2023/12/13 07:13:53;;;;;;;73.10;32.17;;;;;;;;;;5039901;28;20226;-73
2023/12/13 07:16:18;;;;;;;70.80;32.20;;;;;;;;;;5031452;28;20260;-71
2023/12/13 07:18:45;;;;;;;78.43;32.20;;;;;;;;;;5017642;28;20225;-73
2023/12/13 07:21:10;;;;;;;77.37;33.87;;;;;;;;;;5034927;28;20650;-74
2023/12/13 07:23:36;;;;;;;67.33;31.43;;;;;;;;;;5030721;28;20268;-72
2023/12/13 07:26:04;;;;;;;72.83;31.13;;;;;;;;;;5039720;28;20261;-72
2023/12/13 07:28:30;;;;;;;66.37;30.87;;;;;;;;;;5030905;28;20290;-72
2023/12/13 07:30:55;;;;;;;70.80;30.83;;;;;;;;;;5030856;28;20762;-74
2023/12/13 07:33:21;;;;;;;75.70;33.17;;;;;;;;;;5017472;28;20729;-73
2023/12/13 07:35:47;;;;;;;91.70;38.37;;;;;;;;;;5032847;28;20260;-73
2023/12/13 07:38:13;;;;;;;86.40;37.53;;;;;;;;;;5020233;28;20244;-74
2023/12/13 07:40:38;;;;;;;74.97;35.07;;;;;;;;;;5031613;28;20964;-74
2023/12/13 07:43:04;;;;;;;79.07;35.00;;;;;;;;;;5038977;28;20305;-73
2023/12/13 07:45:29;;;;;;;87.30;36.97;;;;;;;;;;5018690;28;20242;-74
2023/12/13 07:47:55;;;;;;;69.97;30.97;;;;;;;;;;5035856;28;20230;-72
2023/12/13 07:50:20;;;;;;;81.30;32.33;;;;;;;;;;5017959;28;20931;-73
2023/12/13 07:52:46;;;;;;;72.93;30.43;;;;;;;;;;5035857;28;20226;-73
2023/12/13 07:55:12;;;;;;;62.10;28.03;;;;;;;;;;5031683;28;20235;-72
2023/12/13 07:57:38;;;;;;;57.93;25.47;;;;;;;;;;5032532;28;20232;-72
2023/12/13 08:00:04;;;;;;;77.83;33.53;;;;;;;;;;5032258;28;20217;-72
2023/12/13 08:02:31;;;;;;;88.60;38.83;;;;;;;;;;5031760;28;20265;-72
2023/12/13 08:04:57;;;;;;;77.80;33.73;;;;;;;;;;5020995;28;20230;-71
2023/12/13 08:07:22;;;;;;;99.07;43.40;;;;;;;;;;5030326;28;20268;-73
2023/12/13 08:09:47;;;;;;;102.63;43.17;;;;;;;;;;5033021;28;20230;-74
2023/12/13 08:12:13;;;;;;;93.83;40.73;;;;;;;;;;5035634;28;20221;-73
2023/12/13 08:14:38;;;;;;;87.13;38.93;;;;;;;;;;5032566;28;20225;-73
2023/12/13 08:17:08;;;;;;;89.17;36.37;;;;;;;;;;5015967;28;20221;-74
2023/12/13 08:19:33;;;;;;;91.93;38.23;;;;;;;;;;5028517;28;20305;-72
2023/12/13 08:21:59;;;;;;;58.47;27.00;;;;;;;;;;5027710;28;20308;-73
2023/12/13 08:24:24;;;;;;;61.87;27.57;;;;;;;;;;5029820;28;20222;-72
2023/12/13 08:26:49;;;;;;;61.73;29.90;;;;;;;;;;5034993;28;20241;-73
2023/12/13 08:29:15;;;;;;;64.97;28.57;;;;;;;;;;5028593;28;20260;-73
2023/12/13 08:31:41;;;;;;;66.10;28.70;;;;;;;;;;5028126;28;20313;-72
2023/12/13 08:34:06;;;;;;;51.70;23.53;;;;;;;;;;5031413;28;20906;-73
2023/12/13 08:36:31;;;;;;;44.23;21.80;;;;;;;;;;5016923;28;20221;-73
2023/12/13 08:38:57;;;;;;;44.77;20.40;;;;;;;;;;5030023;28;20240;-73
2023/12/13 08:41:22;;;;;;;38.73;16.57;;;;;;;;;;5031081;28;20375;-73
2023/12/13 08:43:48;;;;;;;38.03;17.00;;;;;;;;;;5016714;28;20226;-73
2023/12/13 08:46:13;;;;;;;40.50;18.87;;;;;;;;;;5030518;28;20249;-73
2023/12/13 08:48:38;;;;;;;47.23;19.80;;;;;;;;;;5030261;28;20218;-73
2023/12/13 08:51:04;;;;;;;39.63;18.70;;;;;;;;;;5031575;28;20232;-73
2023/12/13 08:53:29;;;;;;;50.70;22.17;;;;;;;;;;5013879;28;20251;-73
2023/12/13 08:55:55;;;;;;;51.30;23.57;;;;;;;;;;5023331;28;20221;-73
2023/12/13 08:58:20;;;;;;;51.67;23.87;;;;;;;;;;5027767;28;20249;-74
2023/12/13 09:00:45;;;;;;;54.73;25.83;;;;;;;;;;5029652;28;20230;-73
2023/12/13 09:03:11;;;;;;;67.00;28.53;;;;;;;;;;5030678;28;20228;-73
2023/12/13 09:05:37;;;;;;;61.63;28.93;;;;;;;;;;5031378;28;20244;-73
2023/12/13 09:08:03;;;;;;;81.53;34.63;;;;;;;;;;5039897;28;20762;-72
2023/12/13 09:10:29;;;;;;;70.37;34.13;;;;;;;;;;5029096;28;20226;-74
2023/12/13 09:12:54;;;;;;;75.17;34.60;;;;;;;;;;5016737;28;20660;-74
2023/12/13 09:15:20;;;;;;;71.27;34.23;;;;;;;;;;5018111;28;20265;-72
2023/12/13 09:17:46;;;;;;;69.30;33.83;;;;;;;;;;5029772;28;20249;-71
2023/12/13 09:20:14;;;;;;;73.60;33.80;;;;;;;;;;5030504;28;20291;-72
2023/12/13 09:22:40;;;;;;;73.17;33.13;;;;;;;;;;5026207;28;20237;-73
2023/12/13 09:25:06;;;;;;;83.00;36.53;;;;;;;;;;5033107;28;20226;-72
2023/12/13 09:27:31;;;;;;;83.53;38.17;;;;;;;;;;5030795;28;20672;-73
2023/12/13 09:29:57;;;;;;;86.53;37.83;;;;;;;;;;5023009;28;20225;-73
2023/12/13 09:32:22;;;;;;;82.07;39.13;;;;;;;;;;5039052;28;20942;-73
2023/12/13 09:34:47;;;;;;;81.43;37.47;;;;;;;;;;5024238;28;20275;-73
2023/12/13 09:37:13;;;;;;;81.60;37.57;;;;;;;;;;5035885;28;20661;-73
2023/12/13 09:39:38;;;;;;;68.73;32.30;;;;;;;;;;5015417;28;20221;-72
2023/12/13 09:42:04;;;;;;;65.63;31.80;;;;;;;;;;5029417;28;20671;-73
2023/12/13 09:44:29;;;;;;;66.03;29.10;;;;;;;;;;5038194;28;20230;-73
2023/12/13 09:46:55;;;;;;;71.57;32.70;;;;;;;;;;5023056;28;20710;-73
2023/12/13 09:49:21;;;;;;;74.97;33.00;;;;;;;;;;5013862;28;20221;-73
2023/12/13 09:51:46;;;;;;;79.67;33.13;;;;;;;;;;5038390;28;20221;-73
2023/12/13 09:54:12;;;;;;;72.60;34.03;;;;;;;;;;5033992;28;20225;-73
2023/12/13 09:56:37;;;;;;;73.67;31.87;;;;;;;;;;5032445;28;20308;-73
2023/12/13 09:59:03;;;;;;;71.33;31.53;;;;;;;;;;5031488;28;20609;-73
2023/12/13 10:01:29;;;;;;;68.63;30.57;;;;;;;;;;5032138;28;20689;-72
2023/12/13 10:03:54;;;;;;;66.33;30.97;;;;;;;;;;5029012;28;20695;-73
2023/12/13 10:06:19;;;;;;;77.53;31.73;;;;;;;;;;5034549;28;20244;-74
2023/12/13 10:08:51;;;;;;;65.20;30.70;;;;;;;;;;5030944;28;20264;-73
2023/12/13 10:11:17;;;;;;;59.97;26.43;;;;;;;;;;5034717;28;20275;-73
2023/12/13 10:13:42;;;;;;;52.73;26.23;;;;;;;;;;5035953;28;20218;-72
2023/12/13 10:16:09;;;;;;;52.03;24.03;;;;;;;;;;5032177;28;20229;-73
2023/12/13 10:18:34;;;;;;;47.37;22.83;;;;;;;;;;5018377;28;20225;-73
2023/12/13 10:21:00;;;;;;;48.40;22.73;;;;;;;;;;5036583;28;20222;-73
2023/12/13 10:23:27;;;;;;;51.60;24.10;;;;;;;;;;5016361;28;20222;-72
2023/12/13 10:25:53;;;;;;;55.37;23.53;;;;;;;;;;5020619;28;20265;-73
2023/12/13 10:28:20;;;;;;;46.77;22.17;;;;;;;;;;5030293;28;20993;-73
2023/12/13 10:30:46;;;;;;;84.23;34.27;;;;;;;;;;5034025;28;20226;-73
2023/12/13 10:33:12;;;;;;;45.30;21.23;;;;;;;;;;5030954;28;20209;-73
2023/12/13 10:35:37;;;;;;;47.73;22.07;;;;;;;;;;5032811;28;20236;-73
2023/12/13 10:38:03;;;;;;;45.17;21.50;;;;;;;;;;5021150;28;20276;-73
2023/12/13 10:40:28;;;;;;;51.50;22.53;;;;;;;;;;5031976;28;20228;-73
2023/12/13 10:42:54;;;;;;;42.00;20.27;;;;;;;;;;5034690;28;20307;-73
2023/12/13 10:45:19;;;;;;;42.23;20.73;;;;;;;;;;5030616;28;20812;-73
2023/12/13 10:47:45;;;;;;;40.90;19.73;;;;;;;;;;5033723;28;20240;-72
2023/12/13 10:50:11;;;;;;;40.70;18.10;;;;;;;;;;5029646;28;20828;-73
2023/12/13 10:52:36;;;;;;;36.90;17.97;;;;;;;;;;5033261;28;20296;-73
2023/12/13 10:55:03;;;;;;;38.23;18.10;;;;;;;;;;5029493;28;20220;-75
2023/12/13 10:57:28;;;;;;;38.57;18.43;;;;;;;;;;5031832;28;20273;-73
2023/12/13 10:59:53;;;;;;;41.17;17.87;;;;;;;;;;5034106;28;20214;-72
2023/12/13 11:02:19;;;;;;;35.77;17.20;;;;;;;;;;5019545;28;20563;-72
2023/12/13 11:04:44;;;;;;;37.87;17.53;;;;;;;;;;5031264;28;20234;-71
2023/12/13 11:07:09;;;;;;;36.63;16.43;;;;;;;;;;5013793;28;20246;-73
2023/12/13 11:09:35;;;;;;;39.77;17.77;;;;;;;;;;5031960;28;20237;-74
2023/12/13 11:12:10;;;;;;;41.40;18.70;;;;;;;;;;5015060;28;20238;-73
2023/12/13 11:14:36;;;;;;;39.73;17.90;;;;;;;;;;5032529;28;20276;-72
2023/12/13 11:17:01;;;;;;;38.33;18.27;;;;;;;;;;5033355;28;20742;-72
2023/12/13 11:19:27;;;;;;;37.47;17.37;;;;;;;;;;5039424;28;20229;-72
2023/12/13 11:21:52;;;;;;;41.63;18.60;;;;;;;;;;5033719;28;20901;-72
2023/12/13 11:24:22;;;;;;;40.10;17.23;;;;;;;;;;5041749;28;20261;-73
2023/12/13 11:26:50;;;;;;;37.00;14.90;;;;;;;;;;5032327;28;20240;-72
2023/12/13 11:29:22;;;;;;;38.07;15.67;;;;;;;;;;5026743;28;20234;-72
2023/12/13 11:31:51;;;;;;;32.40;15.50;;;;;;;;;;5023499;28;20310;-74
2023/12/13 11:34:17;;;;;;;37.93;16.23;;;;;;;;;;5015121;28;20230;-74
2023/12/13 11:36:42;;;;;;;38.17;17.23;;;;;;;;;;5025393;28;20695;-73
2023/12/13 11:39:08;;;;;;;36.63;15.43;;;;;;;;;;5015043;28;20236;-73
2023/12/13 11:41:33;;;;;;;32.83;15.97;;;;;;;;;;5025952;28;20618;-73
2023/12/13 11:43:58;;;;;;;43.77;17.67;;;;;;;;;;5020763;28;20307;-73
2023/12/13 11:46:25;;;;;;;35.07;15.73;;;;;;;;;;5027298;28;20236;-73
2023/12/13 11:48:50;;;;;;;37.83;15.70;;;;;;;;;;5030932;28;20672;-73
2023/12/13 11:51:16;;;;;;;30.47;14.40;;;;;;;;;;5031044;28;20225;-72
2023/12/13 11:53:42;;;;;;;32.43;14.70;;;;;;;;;;5028814;28;20707;-72
2023/12/13 11:56:08;;;;;;;28.30;13.43;;;;;;;;;;5017857;28;20723;-72
2023/12/13 11:58:33;;;;;;;32.87;13.27;;;;;;;;;;5020598;28;20228;-72
2023/12/13 12:00:59;;;;;;;34.07;13.53;;;;;;;;;;5028367;28;20229;-72
2023/12/13 12:03:24;;;;;;;27.60;13.07;;;;;;;;;;5034924;28;20366;-73
2023/12/13 12:05:50;;;;;;;31.97;12.60;;;;;;;;;;5029876;28;20242;-73
2023/12/13 12:08:16;;;;;;;31.73;13.57;;;;;;;;;;5029948;28;20309;-72
2023/12/13 12:10:42;;;;;;;30.77;12.33;;;;;;;;;;5026802;28;20237;-72
2023/12/13 12:13:07;;;;;;;25.67;12.20;;;;;;;;;;5025074;28;20875;-72
2023/12/13 12:15:32;;;;;;;28.00;12.30;;;;;;;;;;5028416;28;20230;-72
2023/12/13 12:17:59;;;;;;;29.17;11.50;;;;;;;;;;5013449;28;20884;-72
2023/12/13 12:20:24;;;;;;;25.37;10.37;;;;;;;;;;5032811;28;20237;-72
2023/12/13 12:22:50;;;;;;;24.13;9.93;;;;;;;;;;5031269;28;20610;-72
2023/12/13 12:25:15;;;;;;;21.97;8.50;;;;;;;;;;5028253;28;20285;-73
2023/12/13 12:27:44;;;;;;;21.07;8.57;;;;;;;;;;5027558;28;21142;-73
2023/12/13 12:30:10;;;;;;;18.57;8.70;;;;;;;;;;5012894;28;20232;-73
2023/12/13 12:32:35;;;;;;;21.40;8.10;;;;;;;;;;5029182;28;20300;-73
2023/12/13 12:35:02;;;;;;;21.13;7.80;;;;;;;;;;5014532;28;20304;-75
2023/12/13 12:37:27;;;;;;;15.97;7.30;;;;;;;;;;5015460;28;20658;-74
2023/12/13 12:39:53;;;;;;;17.00;6.70;;;;;;;;;;5029830;28;20288;-75
2023/12/13 12:42:19;;;;;;;18.53;6.90;;;;;;;;;;5030856;28;20670;-73
2023/12/13 12:44:45;;;;;;;16.43;7.00;;;;;;;;;;5026612;28;20233;-73
2023/12/13 12:47:10;;;;;;;17.67;6.90;;;;;;;;;;5029067;28;20234;-74
2023/12/13 12:49:36;;;;;;;20.97;9.37;;;;;;;;;;5016406;28;20447;-73
2023/12/13 12:52:01;;;;;;;13.93;5.80;;;;;;;;;;5027782;28;20237;-73
2023/12/13 12:54:26;;;;;;;19.53;6.10;;;;;;;;;;5027177;28;20279;-73
2023/12/13 12:56:52;;;;;;;12.23;5.90;;;;;;;;;;5025764;28;20234;-72
2023/12/13 12:59:17;;;;;;;12.43;5.60;;;;;;;;;;5026490;28;20222;-73
2023/12/13 13:01:43;;;;;;;11.10;5.30;;;;;;;;;;5028756;28;20312;-74
2023/12/13 13:04:12;;;;;;;11.80;5.40;;;;;;;;;;5021870;28;20294;-74
2023/12/13 13:06:37;;;;;;;11.20;5.63;;;;;;;;;;5015329;28;20234;-73
2023/12/13 13:09:03;;;;;;;10.40;5.37;;;;;;;;;;5030326;28;20914;-75
2023/12/13 13:11:29;;;;;;;10.60;5.27;;;;;;;;;;5023764;28;20279;-74
2023/12/13 13:13:54;;;;;;;13.37;5.43;;;;;;;;;;5016531;28;20677;-73
2023/12/13 13:16:21;;;;;;;11.37;5.50;;;;;;;;;;5019731;28;20236;-74
2023/12/13 13:18:46;;;;;;;12.50;5.50;;;;;;;;;;5030002;28;20229;-73
2023/12/13 13:21:12;;;;;;;13.27;6.30;;;;;;;;;;5024949;28;20256;-73
2023/12/13 13:23:37;;;;;;;15.00;7.00;;;;;;;;;;5031939;28;20217;-74
2023/12/13 13:26:04;;;;;;;13.97;6.50;;;;;;;;;;5014489;28;20236;-73
2023/12/13 13:28:30;;;;;;;17.57;7.47;;;;;;;;;;5031079;28;20245;-72
2023/12/13 13:30:56;;;;;;;12.67;7.00;;;;;;;;;;5026383;28;20790;-74
2023/12/13 13:33:21;;;;;;;18.67;7.50;;;;;;;;;;5029409;28;20336;-73
2023/12/13 13:35:49;;;;;;;14.90;7.70;;;;;;;;;;5027170;28;20332;-72
2023/12/13 13:38:14;;;;;;;21.90;9.47;;;;;;;;;;5031116;28;20222;-73
2023/12/13 13:40:40;;;;;;;69.97;28.63;;;;;;;;;;5036738;28;20217;-72
2023/12/13 13:43:05;;;;;;;34.37;17.83;;;;;;;;;;5030448;28;20315;-73
2023/12/13 13:45:30;;;;;;;16.37;8.30;;;;;;;;;;5035795;28;20312;-72
2023/12/13 13:47:56;;;;;;;16.17;9.00;;;;;;;;;;5034176;28;20245;-71
2023/12/13 13:50:21;;;;;;;18.13;8.37;;;;;;;;;;5039112;28;20304;-72
2023/12/13 13:52:46;;;;;;;17.87;8.20;;;;;;;;;;5035003;28;20233;-72
2023/12/13 13:55:12;;;;;;;19.57;8.90;;;;;;;;;;5031405;28;20252;-72
2023/12/13 13:57:38;;;;;;;19.70;9.40;;;;;;;;;;5034635;28;20253;-72
2023/12/13 14:00:05;;;;;;;17.13;8.90;;;;;;;;;;5031170;28;20241;-71
2023/12/13 14:02:31;;;;;;;25.13;10.70;;;;;;;;;;5026400;28;20230;-72
2023/12/13 14:04:56;;;;;;;24.20;9.63;;;;;;;;;;5032138;28;20757;-72
2023/12/13 14:07:21;;;;;;;16.97;8.60;;;;;;;;;;5036760;28;20237;-73